Terminal Aerodrome Forecast
Issued by NWS

Home | Current Version | Previous Version | Text Only | Print | Product List | Glossary On
Versions: 1 2 3 4 5 6 7 8 9 10 11 12 13 14 15 16 17 18
000
FTUS42 KGSP 132300
TAFGMU
TAF
KGMU 132340Z 1400/1424 23006KT P6SM SCT070
     FM141800 24012KT P6SM BKN050 PROB30 1419/1422 4SM TSRA
      BKN040CB=

USA.gov is the U.S. government's official web portal to all federal, state and local government web resources and services.